Flight Track Log - Related Links

Times and Time Zones

All times are in EDT time to prevent confusion due to time zone crossing. See the N80KW flight status page for this flight to view local times or setup timezone preferences in your user account.


Time Position Orientation Groundspeed Altitude Reporting Facility
EDT Latitude Longitude Course Direction KTS MPH feet Rate Location/Type
Thu 04:28:53 PM 33.1958 -80.3806 200° South 112 129 10,400  Level Jacksonville Center
Thu 04:29:53 PM 33.1606 -80.3964 201° Southwest 112 129 10,600 200 Climbing Jacksonville Center
Thu 04:30:53 PM 33.1214 -80.4125 199° South 132 152 10,800  Climbing Jacksonville Center
Thu 04:31:53 PM 33.0800 -80.4358 205° Southwest 152 175 10,600 -150 Descending Jacksonville Center
Thu 04:32:53 PM 33.0344 -80.4594 203° Southwest 166 191 10,500  Descending Jacksonville Center
Thu 04:33:53 PM 32.9908 -80.4728 194° South 171 197 10,600 50 Climbing Jacksonville Center
Thu 04:34:00 PM 32.8637 -80.5808 200° South  Level Estimated
Thu 04:34:53 PM 32.9494 -80.4914 201° Southwest 166 191 10,600  Level Jacksonville Center
Thu 04:35:53 PM 32.9061 -80.5075 197° South 166 191 10,600 50 Level Jacksonville Center
Thu 04:36:53 PM 32.8625 -80.5258 199° South 166 191 10,700 50 Climbing Jacksonville Center
Thu 04:37:53 PM 32.8211 -80.5417 198° South 166 191 10,700  Level Jacksonville Center
Thu 04:38:53 PM 32.7775 -80.5603 200° South 166 191 10,700  Level Jacksonville Center
Thu 04:39:53 PM 32.7342 -80.5786 200° South 166 191 10,700  Level Jacksonville Center
Thu 04:40:53 PM 32.6928 -80.5969 200° South 166 191 10,700  Level Jacksonville Center
Thu 04:41:53 PM 32.6514 -80.6153 200° South 166 191 10,700  Level Jacksonville Center
Thu 04:42:54 PM 32.6078 -80.6361 202° Southwest 170 196 10,700 -50 Level Jacksonville Center
Thu 04:43:53 PM 32.5683 -80.6519 199° South 161 185 10,600  Descending Jacksonville Center
Thu 04:44:53 PM 32.5250 -80.6703 200° South 167 192 10,700 50 Climbing Jacksonville Center
Thu 04:45:53 PM 32.4836 -80.6883 200° South 163 188 10,700  Level Jacksonville Center
Thu 04:46:53 PM 32.4400 -80.7067 200° South 168 193 10,700  Level Jacksonville Center
Thu 04:47:53 PM 32.3986 -80.7250 201° Southwest 167 192 10,700  Level Jacksonville Center
Thu 04:48:54 PM 32.3550 -80.7431 199° South 172 198 10,700  Level Jacksonville Center
Thu 04:49:53 PM 32.3178 -80.7636 205° Southwest 172 198 10,700  Level Jacksonville Center
Thu 04:50:53 PM 32.2764 -80.7794 198° South 172 198 10,700  Level Jacksonville Center
Thu 04:51:53 PM 32.2306 -80.8000 201° Southwest 166 191 10,700  Level Jacksonville Center
Thu 04:52:53 PM 32.1872 -80.8183 200° South 166 191 10,700  Level Jacksonville Center
Thu 04:53:53 PM 32.1436 -80.8364 199° South 166 191 10,700  Level Jacksonville Center
Thu 04:54:54 PM 32.1064 -80.8519 199° South 166 191 10,700  Level Jacksonville Center
Thu 04:55:53 PM 32.0628 -80.8703 200° South 166 191 10,700  Level Jacksonville Center
Thu 04:56:53 PM 32.0172 -80.8908 201° Southwest 166 191 10,700  Level Jacksonville Center
Thu 04:57:54 PM 31.9736 -80.9114 202° Southwest 166 191 10,700  Level Jacksonville Center
Thu 04:58:53 PM 31.9342 -80.9292 201° Southwest 166 191 10,700 -50 Level Jacksonville Center
Thu 04:59:53 PM 31.8947 -80.9472 201° Southwest 166 191 10,600 -50 Descending Jacksonville Center
Thu 05:00:53 PM 31.8511 -80.9653 199° South 171 197 10,600 50 Level Jacksonville Center
Thu 05:01:53 PM 31.8014 -80.9883 202° Southwest 171 197 10,700 50 Climbing Jacksonville Center
Thu 05:02:53 PM 31.7558 -81.0064 199° South 171 197 10,700  Level Jacksonville Center
Thu 05:03:53 PM 31.7103 -81.0269 201° Southwest 171 197 10,700  Level Jacksonville Center
Thu 05:04:53 PM 31.6644 -81.0425 196° South 177 204 10,700  Level Jacksonville Center
Thu 05:05:53 PM 31.6125 -81.0631 199° South 177 204 10,700  Level Jacksonville Center
Thu 05:06:53 PM 31.5669 -81.0833 201° Southwest 182 209 10,700  Level Jacksonville Center
Thu 05:07:53 PM 31.5172 -81.1014 197° South 188 216 10,700  Level Jacksonville Center
Thu 05:08:53 PM 31.4756 -81.1192 200° South 188 216 10,700  Level Jacksonville Center
Thu 05:09:53 PM 31.4300 -81.1394 201° Southwest 188 216 10,700 -50 Level Jacksonville Center
Thu 05:10:53 PM 31.3781 -81.1625 201° Southwest 188 216 10,600  Descending Jacksonville Center
Thu 05:11:54 PM 31.3303 -81.1828 200° South 188 216 10,700 50 Climbing Jacksonville Center
Thu 05:12:54 PM 31.2847 -81.2031 201° Southwest 188 216 10,700  Level Jacksonville Center
Thu 05:13:53 PM 31.2369 -81.2233 200° South 181 208 10,700  Level Jacksonville Center
Thu 05:14:53 PM 31.1911 -81.2436 201° Southwest 186 214 10,700  Level Jacksonville Center
Thu 05:15:53 PM 31.1433 -81.2614 198° South 186 214 10,700  Level Jacksonville Center
Thu 05:16:53 PM 31.0997 -81.2817 202° Southwest 186 214 10,700  Level Jacksonville Center
Thu 05:17:53 PM 31.0519 -81.3017 200° South 186 214 10,700  Level Jacksonville Center
Thu 05:18:53 PM 31.0083 -81.3194 199° South 186 214 10,700  Level Jacksonville Center
Thu 05:19:54 PM 30.9628 -81.3372 199° South 186 214 10,700  Level Jacksonville Center
Thu 05:20:52 PM 30.9192 -81.3572 201° Southwest 174 200 10,700  Level Jacksonville Center
Thu 05:21:53 PM 30.8692 -81.3750 197° South 174 200 10,700  Level Jacksonville Center
Thu 05:22:53 PM 30.8256 -81.3950 201° Southwest 186 214 10,700  Level Jacksonville Center
Thu 05:23:49 PM 30.7819 -81.4128 199° South 172 198 10,700  Level Jacksonville Center
Thu 05:24:53 PM 30.7322 -81.4328 199° South 186 214 10,700  Level Jacksonville Center
Thu 05:26:03 PM 30.6803 -81.4531 199° South 176 203 10,700  Level Jacksonville Center
Thu 05:26:54 PM 30.6469 -81.4681 201° Southwest 186 214 10,700  Level Jacksonville Center
Thu 05:27:54 PM 30.6011 -81.4881 201° Southwest 186 214 10,700  Level Jacksonville Center
Thu 05:28:53 PM 30.5556 -81.5056 198° South 186 214 10,700  Level Jacksonville Center
Thu 05:30:07 PM 30.4953 -81.5281 198° South 176 203 10,700  Level Jacksonville Center
Thu 05:31:07 PM 30.4494 -81.5456 198° South 175 201 10,700  Level Jacksonville Center
Thu 05:32:08 PM 30.3994 -81.5681 201° Southwest 175 201 10,700  Level Jacksonville Center
Thu 05:33:09 PM 30.3539 -81.5878 200° South 175 201 10,700  Level Jacksonville Center
Thu 05:34:10 PM 30.3081 -81.6078 201° Southwest 175 201 10,700  Level Jacksonville Center
Thu 05:35:11 PM 30.2622 -81.6275 200° South 176 203 10,700  Level Jacksonville Center
Thu 05:36:12 PM 30.2167 -81.6475 201° Southwest 180 207 10,700  Level Jacksonville Center
Thu 05:37:13 PM 30.1686 -81.6647 197° South 176 203 10,700 -52 Level Jacksonville Center
Thu 05:38:08 PM 30.1272 -81.6822 200° South 174 200 10,600  Descending Jacksonville Center
Thu 05:39:09 PM 30.0772 -81.7019 199° South 174 200 10,700 47 Climbing Jacksonville Center
Thu 05:40:16 PM 30.0272 -81.7217 199° South 175 201 10,700  Level Jacksonville Center
Thu 05:41:11 PM 29.9836 -81.7392 199° South 177 204 10,700  Level Jacksonville Center
Thu 05:42:12 PM 29.9378 -81.7589 200° South 178 205 10,700  Level Jacksonville Center
Thu 05:43:13 PM 29.8900 -81.7786 200° South 178 205 10,700  Level Jacksonville Center
Thu 05:44:26 PM 29.8339 -81.8031 201° Southwest 180 207 10,700 -179 Level Jacksonville Center
Thu 05:45:27 PM 29.7861 -81.8228 200° South 184 212 10,300 -694 Descending Jacksonville Center
Thu 05:46:27 PM 29.7300 -81.8522 204° Southwest 215 247 9,300 -793 Descending Jacksonville Center
Thu 05:47:28 PM 29.6800 -81.8719 199° South 200 230 8,700 -537 Descending Jacksonville Center
Thu 05:48:30 PM 29.6281 -81.8939 200° South 191 220 8,200 -651 Descending Jacksonville Center
Thu 05:49:37 PM 29.5739 -81.9183 201° Southwest 186 214 7,300 -881 Descending Jacksonville Center
Thu 05:50:19 PM 29.5364 -81.9353 201° Southwest 189 217 6,600 -742 Descending Jacksonville Center
Thu 05:51:14 PM 29.4906 -81.9453 191° South 191 220 6,100 -627 Descending Jacksonville Center
Thu 05:52:33 PM 29.4281 -81.9769 204° Southwest 182 209 5,200 -600 Descending Jacksonville Center
Thu 05:53:34 PM 29.3950 -82.0203 229° Southwest 182 209 4,700 -443 Descending Jacksonville Center
Thu 05:54:35 PM 29.3619 -82.0633 229° Southwest 177 204 4,300 -362 Descending Jacksonville Center
Thu 05:55:30 PM 29.3225 -82.0803 201° Southwest 178 205 4,000 -436 Descending Jacksonville Center
Thu 05:56:25 PM 29.2744 -82.0950 195° South 184 212 3,500 -545 Descending Jacksonville Center
Thu 05:58:00 PM 29.2050 -82.0970 181° South  Level FlightAware Approximate

Login

Don't have an account? Register now (free) for customized features, flight alerts, and more!